Puisoye, Argentina
Current Conditions -  °F | °C
As of 1:00 PM on Thursday 30 Oct 2014 (Local Time) from SARC Reporting Station
Broken Clouds Broken Clouds  
Wind Chill: 23°   Ceiling: 20000
Heat Index: 23°   Visibility: 6mi
Dew Point: 19°   Wind: 15mph
Humidity: 78%   Direction: 110°ESE
Pressure: 29.74"   Gusts: NA
Location:  27.88°S, 57.87°W
Report Text: SARC 301600Z 11013KT 060V140 9999 FEW018BKN200 23/19 Q1007
Loading
Personal Weather Stations






























Interactive Weather Map
Tropical Storm Tracking
New forecast layout! Learn more

10-Day Weather Forecast

Advertisements
Track Severe Weather on mobile